createdAt,value
2018-06-17T00:00:31.937Z,12.07
2018-06-17T00:03:00.801Z,11.57
2018-06-17T00:05:29.529Z,11.27
2018-06-17T00:07:58.172Z,11.83
2018-06-17T00:10:26.783Z,14.13
2018-06-17T00:12:58.327Z,12.23
2018-06-17T00:15:27.098Z,12.13
2018-06-17T00:17:55.477Z,10.90
2018-06-17T00:20:23.925Z,11.75
2018-06-17T00:22:52.546Z,10.90
2018-06-17T00:25:21.512Z,11.20
2018-06-17T00:27:49.914Z,11.43
2018-06-17T00:30:19.515Z,11.47
2018-06-17T00:32:48.805Z,10.28
2018-06-17T00:35:18.403Z,11.10
2018-06-17T00:37:47.816Z,11.43
2018-06-17T00:40:15.985Z,10.80
2018-06-17T00:42:44.108Z,10.83
2018-06-17T00:45:12.543Z,9.68
2018-06-17T00:47:41.247Z,10.47
2018-06-17T00:50:09.711Z,10.10
2018-06-17T00:52:37.834Z,9.30
2018-06-17T00:55:06.213Z,9.67
2018-06-17T00:57:52.134Z,9.77
2018-06-17T01:00:21.968Z,9.23
2018-06-17T01:02:50.105Z,8.73
2018-06-17T01:05:19.472Z,8.10
2018-06-17T01:07:47.889Z,8.33
2018-06-17T01:10:16.322Z,8.97
2018-06-17T01:12:44.861Z,9.13
2018-06-17T01:15:14.472Z,8.03
2018-06-17T01:17:42.825Z,7.87
2018-06-17T01:20:11.283Z,9.50
2018-06-17T01:22:39.652Z,8.57
2018-06-17T01:25:08.011Z,9.27
2018-06-17T01:27:36.176Z,8.33
2018-06-17T01:30:04.704Z,7.87
2018-06-17T01:32:33.170Z,9.53
2018-06-17T01:35:01.579Z,8.78
2018-06-17T01:37:30.062Z,8.63
2018-06-17T01:39:58.183Z,8.20
2018-06-17T01:42:26.339Z,8.63
2018-06-17T01:44:54.774Z,9.53
2018-06-17T01:47:23.698Z,9.43
2018-06-17T01:49:53.880Z,8.27
2018-06-17T01:52:23.108Z,7.90
2018-06-17T01:54:51.473Z,8.47
2018-06-17T01:57:19.590Z,8.27
2018-06-17T01:59:47.964Z,7.93
2018-06-17T02:02:16.329Z,8.50
2018-06-17T02:05:02.549Z,8.33
2018-06-17T02:07:48.720Z,9.03
2018-06-17T02:10:34.876Z,10.00
2018-06-17T02:13:03.844Z,8.40
2018-06-17T02:15:32.269Z,8.63
2018-06-17T02:18:02.249Z,8.20
2018-06-17T02:20:30.671Z,8.77
2018-06-17T02:22:58.798Z,8.43
2018-06-17T02:25:28.104Z,8.30
2018-06-17T02:27:56.509Z,8.37
2018-06-17T02:30:28.823Z,8.67
2018-06-17T02:32:57.275Z,8.50
2018-06-17T02:35:25.689Z,9.13
2018-06-17T02:37:54.124Z,8.83
2018-06-17T02:40:22.514Z,8.90
2018-06-17T02:42:50.651Z,9.37
2018-06-17T02:45:36.952Z,8.47
2018-06-17T02:48:24.996Z,8.97
2018-06-17T02:51:11.270Z,10.35
2018-06-17T02:53:57.328Z,10.30
2018-06-17T02:56:25.496Z,8.97
2018-06-17T02:58:54.593Z,8.37
2018-06-17T03:01:22.750Z,9.03
2018-06-17T03:03:51.352Z,8.70
2018-06-17T03:06:21.028Z,7.80
2018-06-17T03:08:49.350Z,7.70
2018-06-17T03:11:25.922Z,7.13
2018-06-17T03:13:54.236Z,7.17
2018-06-17T03:16:23.602Z,6.60
2018-06-17T03:18:53.201Z,7.17
2018-06-17T03:21:21.699Z,6.23
2018-06-17T03:23:50.117Z,6.17
2018-06-17T03:26:37.052Z,6.92
2018-06-17T03:29:23.221Z,6.00
2018-06-17T03:32:09.340Z,7.00
2018-06-17T03:34:37.822Z,5.40
2018-06-17T03:37:06.510Z,5.50
2018-06-17T03:39:34.993Z,5.13
2018-06-17T03:42:04.403Z,5.73
2018-06-17T03:44:32.761Z,7.15
2018-06-17T03:47:01.277Z,5.63
2018-06-17T03:49:29.365Z,6.30
2018-06-17T03:51:58.356Z,5.93
2018-06-17T03:54:28.196Z,5.30
2018-06-17T03:56:56.557Z,5.07
2018-06-17T03:59:25.958Z,4.97
2018-06-17T04:01:54.367Z,5.03
2018-06-17T04:04:23.725Z,4.97
2018-06-17T04:06:53.060Z,5.10
2018-06-17T04:09:24.974Z,4.63
2018-06-17T04:11:53.131Z,5.00
2018-06-17T04:14:31.816Z,5.10
2018-06-17T04:17:07.829Z,5.28
2018-06-17T04:19:37.240Z,4.53
2018-06-17T04:22:08.619Z,4.53
2018-06-17T04:24:38.362Z,5.03
2018-06-17T04:27:07.961Z,4.60
2018-06-17T04:29:37.695Z,4.90
2018-06-17T04:32:16.610Z,5.33
2018-06-17T04:34:45.886Z,5.75
2018-06-17T04:37:14.276Z,4.97
2018-06-17T04:39:42.679Z,4.40
2018-06-17T04:42:11.056Z,4.77
2018-06-17T04:44:39.570Z,5.13
2018-06-17T04:47:07.766Z,5.70
2018-06-17T04:49:36.225Z,4.67
2018-06-17T04:52:05.579Z,4.40
2018-06-17T04:54:33.972Z,5.50
2018-06-17T04:57:02.403Z,4.60
2018-06-17T04:59:30.631Z,4.53
2018-06-17T05:01:59.023Z,4.33
2018-06-17T05:04:28.917Z,4.83
2018-06-17T05:06:57.723Z,5.30
2018-06-17T05:09:26.167Z,4.83
2018-06-17T05:11:54.557Z,5.72
2018-06-17T05:14:23.503Z,4.60
2018-06-17T05:16:51.600Z,4.40
2018-06-17T05:19:20.072Z,4.57
2018-06-17T05:21:48.826Z,5.33
2018-06-17T05:24:17.216Z,4.30
2018-06-17T05:26:47.050Z,5.03
2018-06-17T05:29:15.391Z,4.97
2018-06-17T05:31:43.777Z,4.03
2018-06-17T05:34:12.229Z,5.37
2018-06-17T05:36:41.559Z,4.50
2018-06-17T05:39:12.018Z,4.30
2018-06-17T05:41:40.131Z,4.33
2018-06-17T05:44:08.540Z,4.57
2018-06-17T05:46:37.466Z,4.57
2018-06-17T05:49:06.174Z,5.65
2018-06-17T05:51:34.768Z,4.40
2018-06-17T05:54:03.271Z,4.23
2018-06-17T05:56:31.686Z,5.00
2018-06-17T05:59:00.047Z,5.53
2018-06-17T06:01:28.209Z,4.97
2018-06-17T06:03:56.660Z,4.80
2018-06-17T06:06:24.739Z,4.73
2018-06-17T06:08:53.215Z,5.33
2018-06-17T06:11:21.653Z,5.53
2018-06-17T06:13:50.130Z,5.30
2018-06-17T06:16:18.536Z,5.62
2018-06-17T06:18:46.989Z,5.57
2018-06-17T06:21:15.368Z,5.03
2018-06-17T06:23:43.742Z,5.60
2018-06-17T06:26:12.131Z,5.72
2018-06-17T06:28:40.638Z,5.50
2018-06-17T06:31:08.804Z,5.17
2018-06-17T06:33:37.182Z,4.83
2018-06-17T06:36:05.689Z,5.70
2018-06-17T06:38:34.201Z,5.03
2018-06-17T06:41:02.354Z,5.70
2018-06-17T06:43:30.788Z,5.17
2018-06-17T06:45:59.296Z,5.57
2018-06-17T06:48:27.702Z,5.50
2018-06-17T06:50:55.829Z,4.83
2018-06-17T06:53:24.341Z,5.60
2018-06-17T06:55:52.722Z,6.70
2018-06-17T06:58:22.465Z,5.70
2018-06-17T07:00:51.009Z,6.07
2018-06-17T07:03:37.078Z,6.27
2018-06-17T07:06:41.802Z,5.70
2018-06-17T07:09:46.816Z,6.42
2018-06-17T07:12:15.219Z,6.63
2018-06-17T07:14:44.474Z,5.83
2018-06-17T07:17:31.064Z,5.93
2018-06-17T07:19:59.177Z,5.97
2018-06-17T07:22:28.552Z,6.03
2018-06-17T07:24:58.276Z,6.60
2018-06-17T07:28:13.553Z,6.90
2018-06-17T07:30:42.059Z,6.47
2018-06-17T07:33:10.454Z,7.13
2018-06-17T07:35:38.863Z,5.95
2018-06-17T07:38:06.981Z,7.12
2018-06-17T07:40:49.336Z,7.12
2018-06-17T07:43:17.433Z,6.30
2018-06-17T07:45:45.933Z,6.65
2018-06-17T07:48:55.274Z,6.37
2018-06-17T07:52:03.840Z,6.75
2018-06-17T07:54:32.022Z,6.60
2018-06-17T07:57:01.280Z,6.83
2018-06-17T07:59:29.820Z,7.50
2018-06-17T08:01:58.490Z,6.30
2018-06-17T08:04:27.090Z,6.30
2018-06-17T08:06:55.979Z,6.80
2018-06-17T08:09:24.890Z,6.05
2018-06-17T08:11:53.427Z,5.78
2018-06-17T08:14:21.950Z,6.40
2018-06-17T08:16:51.000Z,6.17
2018-06-17T08:19:19.891Z,6.58
2018-06-17T08:21:48.603Z,6.22
2018-06-17T08:24:17.410Z,7.20
2018-06-17T08:26:46.012Z,6.60
2018-06-17T08:29:14.090Z,6.42
2018-06-17T08:31:42.645Z,6.37
2018-06-17T08:34:11.159Z,7.05
2018-06-17T08:36:40.109Z,6.45
2018-06-17T08:39:11.609Z,6.45
2018-06-17T08:41:40.638Z,6.85
2018-06-17T08:44:09.976Z,5.85
2018-06-17T08:46:39.604Z,6.33
2018-06-17T08:49:08.014Z,5.90
2018-06-17T08:51:36.586Z,6.10
2018-06-17T08:54:05.805Z,6.55
2018-06-17T08:56:35.478Z,6.05
2018-06-17T08:59:03.681Z,6.42
2018-06-17T09:01:32.304Z,5.65
2018-06-17T09:04:01.105Z,6.58
2018-06-17T09:06:29.513Z,6.28
2018-06-17T09:08:59.279Z,6.55
2018-06-17T09:11:27.807Z,6.47
2018-06-17T09:13:57.084Z,5.50
2018-06-17T09:16:27.396Z,4.80
2018-06-17T09:18:55.824Z,5.33
2018-06-17T09:21:24.355Z,5.08
2018-06-17T09:23:52.885Z,4.87
2018-06-17T09:26:21.349Z,5.28
2018-06-17T09:28:50.119Z,5.10
2018-06-17T09:31:19.264Z,4.67
2018-06-17T09:33:47.417Z,3.95
2018-06-17T09:36:15.567Z,4.42
2018-06-17T09:38:45.566Z,4.75
2018-06-17T09:41:15.006Z,4.95
2018-06-17T09:43:46.577Z,5.33
2018-06-17T09:46:15.184Z,4.75
2018-06-17T09:48:43.365Z,4.37
2018-06-17T09:51:15.017Z,5.30
2018-06-17T09:53:47.810Z,5.00
2018-06-17T09:56:16.347Z,4.92
2018-06-17T09:58:44.755Z,4.40
2018-06-17T10:01:13.147Z,4.72
2018-06-17T10:03:41.642Z,4.92
2018-06-17T10:06:09.859Z,5.22
2018-06-17T10:08:38.795Z,4.83
2018-06-17T10:11:08.262Z,5.28
2018-06-17T10:13:45.671Z,5.33
2018-06-17T10:16:16.631Z,5.85
2018-06-17T10:18:45.229Z,4.45
2018-06-17T10:21:14.300Z,4.30
2018-06-17T10:23:43.424Z,5.03
2018-06-17T10:26:11.890Z,4.42
2018-06-17T10:28:40.468Z,4.65
2018-06-17T10:31:08.624Z,4.67
2018-06-17T10:33:36.863Z,4.40
2018-06-17T10:36:05.656Z,4.53
2018-06-17T10:38:35.764Z,4.97
2018-06-17T10:41:04.829Z,5.10
2018-06-17T10:43:33.822Z,4.30
2018-06-17T10:46:02.555Z,4.12
2018-06-17T10:48:33.798Z,4.47
2018-06-17T10:51:02.486Z,3.98
2018-06-17T10:53:30.709Z,4.50
2018-06-17T10:55:58.858Z,3.92
2018-06-17T10:58:26.976Z,4.62
2018-06-17T11:00:57.036Z,3.98
2018-06-17T11:03:33.795Z,5.05
2018-06-17T11:06:03.271Z,4.75
2018-06-17T11:08:31.704Z,4.12
2018-06-17T11:11:10.817Z,4.25
2018-06-17T11:13:42.176Z,3.30
2018-06-17T11:16:10.647Z,3.10
2018-06-17T11:18:42.243Z,3.62
2018-06-17T11:21:10.354Z,3.30
2018-06-17T11:23:40.135Z,3.20
2018-06-17T11:26:10.693Z,3.65
2018-06-17T11:28:50.058Z,2.95
2018-06-17T11:31:20.068Z,3.30
2018-06-17T11:33:53.486Z,3.05
2018-06-17T11:36:24.342Z,2.90
2018-06-17T11:38:52.482Z,2.83
2018-06-17T11:41:20.951Z,3.00
2018-06-17T11:43:49.449Z,3.42
2018-06-17T11:46:17.876Z,3.10
2018-06-17T11:48:46.172Z,3.30
2018-06-17T11:51:15.430Z,3.25
2018-06-17T11:53:43.893Z,3.90
2018-06-17T11:56:13.161Z,2.90
2018-06-17T11:58:41.591Z,2.92
2018-06-17T12:01:10.000Z,3.02
2018-06-17T12:03:39.078Z,3.45
2018-06-17T12:06:07.254Z,3.30
2018-06-17T12:08:35.438Z,2.77
2018-06-17T12:11:03.614Z,3.05
2018-06-17T12:13:31.856Z,3.80
2018-06-17T12:16:01.190Z,4.17
2018-06-17T12:18:30.454Z,4.00
2018-06-17T12:20:58.864Z,3.97
2018-06-17T12:23:27.923Z,3.92
2018-06-17T12:25:56.388Z,3.87
2018-06-17T12:28:24.957Z,4.20
2018-06-17T12:30:53.993Z,3.40
2018-06-17T12:33:22.440Z,3.90
2018-06-17T12:35:50.750Z,4.25
2018-06-17T12:38:19.233Z,3.60
2018-06-17T12:40:47.694Z,3.30
2018-06-17T12:43:17.430Z,3.72
2018-06-17T12:45:44.909Z,3.95
2018-06-17T12:48:13.119Z,3.87
2018-06-17T12:50:41.714Z,3.90
2018-06-17T12:53:10.145Z,4.12
2018-06-17T12:55:39.398Z,3.80
2018-06-17T12:58:08.959Z,4.65
2018-06-17T13:00:37.153Z,3.37
2018-06-17T13:03:05.960Z,3.50
2018-06-17T13:05:34.881Z,3.60
2018-06-17T13:08:03.360Z,3.55
2018-06-17T13:10:31.808Z,3.70
2018-06-17T13:13:01.175Z,3.30
2018-06-17T13:15:29.336Z,3.90
2018-06-17T13:17:58.212Z,4.08
2018-06-17T13:20:26.714Z,3.37
2018-06-17T13:22:54.837Z,3.55
2018-06-17T13:25:23.299Z,2.90
2018-06-17T13:27:51.806Z,3.17
2018-06-17T13:30:20.228Z,2.70
2018-06-17T13:32:48.394Z,2.17
2018-06-17T13:35:16.861Z,2.67
2018-06-17T13:37:46.208Z,2.70
2018-06-17T13:40:15.437Z,2.60
2018-06-17T13:42:43.961Z,2.77
2018-06-17T13:45:12.340Z,2.15
2018-06-17T13:47:41.378Z,2.83
2018-06-17T13:50:09.821Z,2.65
2018-06-17T13:52:38.304Z,2.75
2018-06-17T13:55:06.728Z,2.77
2018-06-17T13:57:35.131Z,2.27
2018-06-17T14:00:04.757Z,2.80
2018-06-17T14:02:34.103Z,2.87
2018-06-17T14:05:02.564Z,3.02
2018-06-17T14:07:30.736Z,3.27
2018-06-17T14:09:59.468Z,2.22
2018-06-17T14:12:28.085Z,2.55
2018-06-17T14:15:07.419Z,2.60
2018-06-17T14:17:36.187Z,2.65
2018-06-17T14:20:05.799Z,2.80
2018-06-17T14:22:34.199Z,2.42
2018-06-17T14:25:03.663Z,2.35
2018-06-17T14:27:31.758Z,1.98
2018-06-17T14:30:01.131Z,2.27
2018-06-17T14:32:30.004Z,2.20
2018-06-17T14:35:01.278Z,2.10
2018-06-17T14:37:29.670Z,1.57
2018-06-17T14:39:58.597Z,2.02
2018-06-17T14:42:46.581Z,1.60
2018-06-17T14:45:32.495Z,1.80
2018-06-17T14:48:20.380Z,1.65
2018-06-17T14:51:06.449Z,1.80
2018-06-17T14:53:34.928Z,2.12
2018-06-17T14:56:04.537Z,2.02
2018-06-17T14:58:33.972Z,2.37
2018-06-17T15:01:02.575Z,2.10
2018-06-17T15:03:31.089Z,2.25
2018-06-17T15:05:59.431Z,1.65
2018-06-17T15:08:27.846Z,2.30
2018-06-17T15:10:57.113Z,2.12
2018-06-17T15:13:25.513Z,2.10
2018-06-17T15:15:53.970Z,2.00
2018-06-17T15:18:22.344Z,2.00
2018-06-17T15:20:50.551Z,1.70
2018-06-17T15:23:18.692Z,1.20
2018-06-17T15:25:47.227Z,1.77
2018-06-17T15:28:15.711Z,1.30
2018-06-17T15:30:44.110Z,1.62
2018-06-17T15:33:30.151Z,1.60
2018-06-17T15:36:17.210Z,2.45
2018-06-17T15:38:56.137Z,1.95
2018-06-17T15:41:28.480Z,1.80
2018-06-17T15:43:57.969Z,1.87
2018-06-17T15:46:26.737Z,1.95
2018-06-17T15:48:55.966Z,2.17
2018-06-17T15:51:25.277Z,2.00
2018-06-17T15:53:54.697Z,1.80
2018-06-17T15:56:24.771Z,2.00
2018-06-17T15:58:53.196Z,1.87
2018-06-17T16:01:21.640Z,2.58
2018-06-17T16:03:49.729Z,2.22
2018-06-17T16:06:19.710Z,1.67
2018-06-17T16:08:47.983Z,2.00
2018-06-17T16:11:20.489Z,2.77
2018-06-17T16:14:08.300Z,2.20
2018-06-17T16:16:54.258Z,2.27
2018-06-17T16:19:40.472Z,2.10
2018-06-17T16:22:09.434Z,2.00
2018-06-17T16:24:38.307Z,2.22
2018-06-17T16:27:07.664Z,1.77
2018-06-17T16:29:36.173Z,2.00
2018-06-17T16:32:04.295Z,1.50
2018-06-17T16:34:36.260Z,2.30
2018-06-17T16:37:09.620Z,2.10
2018-06-17T16:39:44.756Z,1.93
2018-06-17T16:42:13.223Z,2.47
2018-06-17T16:44:41.427Z,2.42
2018-06-17T16:47:11.205Z,1.80
2018-06-17T16:49:40.600Z,2.08
2018-06-17T16:52:26.603Z,2.12
2018-06-17T16:55:23.566Z,2.20
2018-06-17T16:58:11.971Z,1.98
2018-06-17T17:00:42.837Z,2.50
2018-06-17T17:03:11.006Z,2.40
2018-06-17T17:05:39.241Z,1.95
2018-06-17T17:08:07.746Z,2.25
2018-06-17T17:10:36.158Z,2.08
2018-06-17T17:13:04.389Z,1.90
2018-06-17T17:15:32.812Z,2.00
2018-06-17T17:18:01.251Z,2.10
2018-06-17T17:20:31.215Z,1.75
2018-06-17T17:23:01.200Z,1.80
2018-06-17T17:25:29.691Z,2.27
2018-06-17T17:27:58.129Z,1.65
2018-06-17T17:30:27.626Z,2.15
2018-06-17T17:33:13.674Z,1.95
2018-06-17T17:35:59.671Z,2.05
2018-06-17T17:38:45.804Z,2.87
2018-06-17T17:41:14.052Z,1.75
2018-06-17T17:43:42.164Z,2.10
2018-06-17T17:46:28.506Z,1.80
2018-06-17T17:48:56.732Z,1.95
2018-06-17T17:51:25.200Z,2.30
2018-06-17T17:53:53.682Z,2.05
2018-06-17T17:56:22.018Z,2.10
2018-06-17T17:58:50.292Z,2.05
2018-06-17T18:01:18.785Z,2.30
2018-06-17T18:03:46.928Z,2.02
2018-06-17T18:06:15.312Z,2.72
2018-06-17T18:08:43.804Z,3.12
2018-06-17T18:11:12.324Z,2.50
2018-06-17T18:13:40.449Z,2.75
2018-06-17T18:16:08.935Z,2.65
2018-06-17T18:18:37.907Z,2.17
2018-06-17T18:21:06.918Z,2.20
2018-06-17T18:23:35.401Z,1.70
2018-06-17T18:26:21.212Z,2.10
2018-06-17T18:29:07.545Z,2.67
2018-06-17T18:31:53.569Z,2.17
2018-06-17T18:34:39.662Z,2.35
2018-06-17T18:37:09.031Z,2.42
2018-06-17T18:39:37.427Z,2.10
2018-06-17T18:42:05.968Z,2.45
2018-06-17T18:44:34.109Z,2.27
2018-06-17T18:47:02.540Z,2.15
2018-06-17T18:49:30.672Z,2.30
2018-06-17T18:51:59.037Z,1.80
2018-06-17T18:54:28.383Z,1.87
2018-06-17T18:56:59.052Z,1.90
2018-06-17T18:59:27.442Z,2.98
2018-06-17T19:01:55.876Z,2.52
2018-06-17T19:04:24.851Z,2.25
2018-06-17T19:06:53.303Z,2.30
2018-06-17T19:09:39.472Z,2.47
2018-06-17T19:12:25.657Z,2.80
2018-06-17T19:15:12.035Z,2.77
2018-06-17T19:17:58.888Z,2.45
2018-06-17T19:20:27.381Z,2.75
2018-06-17T19:22:55.940Z,2.50
2018-06-17T19:25:26.926Z,2.40
2018-06-17T19:27:55.360Z,2.47
2018-06-17T19:30:23.856Z,2.50
2018-06-17T19:32:52.296Z,2.37
2018-06-17T19:35:20.437Z,2.42
2018-06-17T19:37:48.975Z,2.30
2018-06-17T19:40:17.328Z,2.50
2018-06-17T19:42:45.914Z,2.35
2018-06-17T19:45:14.012Z,2.35
2018-06-17T19:47:45.660Z,2.45
2018-06-17T19:50:31.649Z,2.27
2018-06-17T19:53:17.534Z,2.42
2018-06-17T19:56:04.526Z,2.40
2018-06-17T19:58:50.919Z,2.67
2018-06-17T20:01:19.382Z,2.90
2018-06-17T20:03:47.743Z,2.65
2018-06-17T20:06:18.335Z,2.85
2018-06-17T20:08:46.443Z,2.98
2018-06-17T20:11:14.861Z,2.50
2018-06-17T20:13:44.739Z,2.50
2018-06-17T20:16:13.156Z,3.10
2018-06-17T20:18:41.711Z,3.50
2018-06-17T20:21:10.073Z,3.15
2018-06-17T20:23:38.447Z,3.00
2018-06-17T20:26:06.885Z,3.20
2018-06-17T20:28:35.303Z,2.65
2018-06-17T20:31:06.841Z,2.70
2018-06-17T20:33:52.828Z,2.75
2018-06-17T20:36:38.960Z,3.50
2018-06-17T20:39:26.492Z,2.93
2018-06-17T20:42:12.588Z,2.90
2018-06-17T20:44:41.098Z,2.93
2018-06-17T20:47:09.180Z,3.53
2018-06-17T20:49:37.722Z,2.77
2018-06-17T20:52:05.880Z,2.80
2018-06-17T20:54:33.974Z,2.70
2018-06-17T20:57:02.428Z,2.60
2018-06-17T20:59:30.624Z,2.67
2018-06-17T21:01:59.025Z,7.57
2018-06-17T21:04:37.943Z,2.70
2018-06-17T21:07:06.006Z,2.52
2018-06-17T21:09:34.447Z,2.50
2018-06-17T21:12:02.623Z,2.90
2018-06-17T21:14:31.012Z,2.22
2018-06-17T21:16:59.133Z,2.52
2018-06-17T21:19:46.345Z,2.00
2018-06-17T21:22:32.521Z,2.58
2018-06-17T21:25:18.685Z,2.63
2018-06-17T21:27:49.983Z,2.53
2018-06-17T21:30:18.810Z,2.42
2018-06-17T21:32:47.771Z,3.15
2018-06-17T21:35:17.597Z,2.90
2018-06-17T21:37:46.128Z,3.43
2018-06-17T21:40:14.295Z,3.70
2018-06-17T21:42:42.803Z,3.67
2018-06-17T21:45:11.688Z,3.27
2018-06-17T21:47:40.872Z,4.23
2018-06-17T21:50:09.262Z,3.47
2018-06-17T21:52:37.680Z,5.08
2018-06-17T21:55:06.340Z,4.20
2018-06-17T21:57:34.732Z,4.67
2018-06-17T22:00:03.183Z,3.80
2018-06-17T22:02:31.590Z,4.50
2018-06-17T22:04:59.949Z,4.57
2018-06-17T22:07:28.276Z,4.13
2018-06-17T22:10:16.551Z,3.87
2018-06-17T22:13:02.362Z,4.93
2018-06-17T22:15:48.806Z,5.00
2018-06-17T22:18:17.269Z,4.63
2018-06-17T22:20:45.675Z,5.10
2018-06-17T22:23:14.964Z,4.67
2018-06-17T22:25:43.324Z,5.07
2018-06-17T22:28:12.585Z,5.83
2018-06-17T22:30:41.259Z,5.30
2018-06-17T22:33:09.304Z,4.93
2018-06-17T22:35:37.703Z,5.17
2018-06-17T22:38:06.099Z,4.90
2018-06-17T22:40:34.224Z,5.30
2018-06-17T22:43:02.716Z,5.33
2018-06-17T22:45:31.150Z,5.60
2018-06-17T22:48:01.999Z,5.70
2018-06-17T22:50:30.135Z,5.40
2018-06-17T22:53:35.198Z,5.37
2018-06-17T22:56:08.040Z,5.80
2018-06-17T22:58:54.595Z,6.08
2018-06-17T23:01:40.937Z,5.77
2018-06-17T23:04:27.130Z,5.40
2018-06-17T23:07:15.757Z,5.37
2018-06-17T23:09:48.287Z,6.10
2018-06-17T23:12:18.159Z,5.63
2018-06-17T23:14:46.898Z,6.80
2018-06-17T23:17:15.406Z,5.97
2018-06-17T23:19:43.527Z,6.13
2018-06-17T23:22:11.855Z,5.77
2018-06-17T23:24:40.108Z,5.77
2018-06-17T23:27:08.462Z,5.60
2018-06-17T23:29:36.817Z,5.87
2018-06-17T23:32:05.280Z,5.57
2018-06-17T23:34:33.379Z,6.10
2018-06-17T23:37:01.725Z,6.07
2018-06-17T23:39:29.877Z,7.37
2018-06-17T23:41:58.273Z,6.33
2018-06-17T23:44:27.295Z,5.97
2018-06-17T23:47:13.428Z,6.33
2018-06-17T23:49:59.431Z,6.23
2018-06-17T23:52:47.956Z,5.93
2018-06-17T23:55:34.306Z,6.03
2018-06-17T23:58:02.409Z,5.77
